Time;durP1;ratioP1;P1;durP2;ratioP2;P2;SDS_P1;SDS_P2;PMS_P1;PMS_P2;Temp;Humidity;BMP_temperature;BMP_pressure;BME280_temperature;BME280_humidity;BME280_pressure;Samples;Min_cycle;Max_cycle;Signal;HPM_P1;HPM_P2
2023/08/01 00:02:14;;;;;;;5.53;3.38;;;18.50;1.00;;;;;;7392853;19;20705;-71
2023/08/01 00:04:44;;;;;;;6.30;3.20;;;18.50;1.00;;;;;;7393998;19;20014;-70
2023/08/01 00:07:16;;;;;;;5.20;3.15;;;18.50;1.00;;;;;;7396875;19;20011;-70
2023/08/01 00:09:46;;;;;;;6.15;3.47;;;18.50;1.00;;;;;;7392716;19;20015;-70
2023/08/01 00:12:17;;;;;;;6.20;3.08;;;18.40;1.00;;;;;;7398672;19;20031;-70
2023/08/01 00:14:47;;;;;;;6.07;3.35;;;18.30;1.00;;;;;;7393645;19;20018;-70
2023/08/01 00:17:17;;;;;;;3.90;3.00;;;18.40;1.00;;;;;;7395866;19;20018;-70
2023/08/01 00:19:47;;;;;;;7.50;3.53;;;18.30;1.00;;;;;;7392668;19;20517;-70
2023/08/01 00:22:19;;;;;;;7.00;3.30;;;18.30;1.00;;;;;;7396349;19;20090;-71
2023/08/01 00:24:49;;;;;;;6.20;3.35;;;18.30;1.00;;;;;;7393701;19;20023;-71
2023/08/01 00:27:19;;;;;;;6.30;3.28;;;18.20;1.00;;;;;;7391994;19;20042;-71
2023/08/01 00:29:49;;;;;;;5.38;3.30;;;18.10;1.70;;;;;;7392232;19;20375;-71
2023/08/01 00:32:19;;;;;;;5.50;3.70;;;18.00;8.40;;;;;;7393427;19;20082;-71
2023/08/01 00:34:49;;;;;;;4.32;3.08;;;18.00;9.10;;;;;;7392669;19;20497;-71
2023/08/01 00:37:22;;;;;;;5.88;3.47;;;18.00;8.30;;;;;;7393308;19;20094;-71
2023/08/01 00:39:52;;;;;;;11.30;3.63;;;18.00;9.50;;;;;;7392391;19;20018;-71
2023/08/01 00:42:22;;;;;;;5.95;3.67;;;18.10;10.40;;;;;;7389414;19;20010;-71
2023/08/01 00:44:53;;;;;;;8.18;3.83;;;17.90;8.10;;;;;;7392841;19;20034;-71
2023/08/01 00:47:23;;;;;;;7.68;3.65;;;17.90;13.20;;;;;;7392858;19;20018;-71
2023/08/01 00:49:54;;;;;;;7.03;4.05;;;17.90;17.70;;;;;;7391582;19;20026;-71
2023/08/01 00:52:26;;;;;;;7.00;4.05;;;17.70;17.80;;;;;;7393753;19;20027;-71
2023/08/01 00:54:57;;;;;;;7.30;4.22;;;17.80;18.50;;;;;;7391393;19;20014;-71
2023/08/01 00:57:27;;;;;;;8.18;4.13;;;17.80;15.90;;;;;;7392510;19;20470;-71
2023/08/01 00:59:58;;;;;;;8.02;4.25;;;17.80;14.90;;;;;;7391251;19;20074;-71
2023/08/01 01:02:28;;;;;;;10.18;4.80;;;17.90;19.90;;;;;;7391354;19;20018;-70
2023/08/01 01:04:58;;;;;;;8.30;4.47;;;17.80;16.80;;;;;;7391865;19;20018;-71
2023/08/01 01:07:32;;;;;;;6.05;3.75;;;17.80;16.20;;;;;;7391576;19;20039;-71
2023/08/01 01:10:02;;;;;;;8.52;4.38;;;17.80;16.30;;;;;;7389274;19;20035;-70
2023/08/01 01:12:32;;;;;;;6.82;4.03;;;17.80;16.10;;;;;;7392257;19;20340;-69
2023/08/01 01:15:02;;;;;;;6.68;4.30;;;17.90;15.40;;;;;;7391601;19;20021;-70
2023/08/01 01:17:32;;;;;;;10.15;3.97;;;17.90;13.30;;;;;;7391980;19;20014;-72
2023/08/01 01:20:02;;;;;;;5.90;3.83;;;18.00;11.50;;;;;;7390140;19;20038;-70
2023/08/01 01:22:36;;;;;;;5.72;3.70;;;18.00;7.50;;;;;;7391443;19;20014;-70
2023/08/01 01:25:08;;;;;;;6.80;3.65;;;18.10;3.80;;;;;;7391112;19;20018;-70
2023/08/01 01:27:40;;;;;;;6.43;3.78;;;18.10;1.00;;;;;;7389323;19;20015;-70
2023/08/01 01:30:11;;;;;;;9.00;3.65;;;18.10;1.00;;;;;;7391085;19;20018;-71
2023/08/01 01:32:41;;;;;;;5.75;3.85;;;18.20;1.00;;;;;;7390985;19;20011;-70
2023/08/01 01:35:12;;;;;;;8.90;4.00;;;18.20;1.00;;;;;;7390548;19;20014;-71
2023/08/01 01:37:45;;;;;;;6.20;3.95;;;18.10;1.00;;;;;;7391555;19;20010;-70
2023/08/01 01:40:15;;;;;;;6.50;4.10;;;17.90;1.00;;;;;;7390305;19;20537;-70
2023/08/01 01:42:45;;;;;;;5.88;3.90;;;17.90;5.70;;;;;;7389401;19;20015;-70
2023/08/01 01:45:15;;;;;;;4.75;3.60;;;17.80;3.00;;;;;;7391381;19;20022;-71
2023/08/01 01:47:45;;;;;;;7.63;4.47;;;17.80;5.90;;;;;;7391106;19;20057;-70
2023/08/01 01:50:15;;;;;;;8.10;4.32;;;17.80;12.70;;;;;;7391097;19;20023;-70
2023/08/01 01:52:47;;;;;;;5.28;3.38;;;17.70;16.70;;;;;;7391029;19;20034;-71
2023/08/01 01:55:18;;;;;;;6.43;3.65;;;17.60;16.50;;;;;;7390307;19;20619;-70
2023/08/01 01:57:48;;;;;;;5.80;4.05;;;17.50;19.20;;;;;;7390865;19;20010;-71
2023/08/01 02:00:18;;;;;;;6.75;4.22;;;17.50;20.20;;;;;;7389528;19;20086;-71
2023/08/01 02:02:48;;;;;;;5.15;4.05;;;17.50;20.20;;;;;;7389390;19;20086;-71
2023/08/01 02:05:18;;;;;;;7.93;4.50;;;17.50;23.50;;;;;;7390232;19;20350;-71
2023/08/01 02:07:50;;;;;;;7.75;4.40;;;17.50;23.80;;;;;;7389849;19;20404;-70
2023/08/01 02:10:20;;;;;;;5.70;3.60;;;17.50;25.10;;;;;;7389055;19;20486;-70
2023/08/01 02:12:50;;;;;;;5.72;4.05;;;17.40;25.90;;;;;;7389723;19;20041;-70
2023/08/01 02:15:20;;;;;;;6.93;4.20;;;17.30;31.30;;;;;;7387914;19;20018;-70
2023/08/01 02:17:50;;;;;;;6.93;4.57;;;17.40;34.50;;;;;;7390302;19;20038;-70
2023/08/01 02:20:20;;;;;;;7.25;4.40;;;17.40;36.80;;;;;;7388648;19;20014;-70
2023/08/01 02:22:52;;;;;;;7.63;4.35;;;17.40;40.40;;;;;;7388746;19;20031;-70
2023/08/01 02:25:22;;;;;;;8.18;5.15;;;17.40;39.20;;;;;;7389078;19;20015;-71
2023/08/01 02:27:52;;;;;;;8.90;4.50;;;17.40;39.70;;;;;;7389600;19;20027;-71
2023/08/01 02:30:22;;;;;;;7.47;4.50;;;17.30;40.40;;;;;;7388676;19;20014;-71
2023/08/01 02:32:52;;;;;;;6.95;4.90;;;17.40;44.50;;;;;;7388802;19;20011;-71
2023/08/01 02:35:22;;;;;;;9.50;5.22;;;17.50;47.90;;;;;;7389369;19;20022;-71
2023/08/01 02:37:54;;;;;;;9.80;5.65;;;17.50;49.80;;;;;;7389809;19;20346;-71
2023/08/01 02:40:25;;;;;;;8.80;4.78;;;17.40;50.40;;;;;;7387525;19;20364;-71
2023/08/01 02:42:55;;;;;;;9.07;5.00;;;17.40;53.90;;;;;;7388461;19;20018;-71
2023/08/01 02:45:25;;;;;;;9.25;4.78;;;17.30;53.50;;;;;;7388939;19;20031;-71
2023/08/01 02:47:55;;;;;;;6.57;4.30;;;17.30;51.60;;;;;;7388977;19;20018;-71
2023/08/01 02:50:27;;;;;;;6.18;4.15;;;17.20;47.70;;;;;;7387946;19;20011;-71
2023/08/01 02:52:59;;;;;;;8.75;4.75;;;17.40;39.70;;;;;;7390567;19;20015;-71
2023/08/01 02:55:29;;;;;;;7.10;4.10;;;17.50;38.50;;;;;;7388200;19;20038;-71
2023/08/01 02:57:59;;;;;;;8.35;4.13;;;17.40;38.60;;;;;;7388434;19;20698;-70
2023/08/01 03:00:31;;;;;;;8.25;5.00;;;17.40;43.30;;;;;;7388152;19;20010;-70
2023/08/01 03:03:03;;;;;;;10.25;5.07;;;17.30;43.60;;;;;;7388071;19;20042;-70
2023/08/01 03:05:33;;;;;;;7.68;4.70;;;17.40;42.00;;;;;;7388225;19;20487;-70
2023/08/01 03:08:05;;;;;;;9.60;5.25;;;17.50;43.60;;;;;;7387594;19;20101;-69
2023/08/01 03:10:35;;;;;;;9.10;5.30;;;17.40;43.90;;;;;;7388398;19;20015;-70
2023/08/01 03:13:06;;;;;;;9.70;4.72;;;17.30;44.90;;;;;;7388250;19;20082;-71
2023/08/01 03:15:36;;;;;;;8.18;5.22;;;17.30;47.00;;;;;;7386057;19;20015;-70
2023/08/01 03:18:06;;;;;;;7.53;4.35;;;17.30;47.60;;;;;;7388897;19;20034;-71
2023/08/01 03:20:36;;;;;;;6.95;4.70;;;17.40;47.60;;;;;;7400832;19;20032;-71
2023/08/01 03:23:09;;;;;;;7.72;4.80;;;17.40;43.70;;;;;;7401445;19;20018;-71
2023/08/01 03:25:39;;;;;;;7.38;4.70;;;17.40;42.00;;;;;;7394290;19;20019;-71
2023/08/01 03:28:09;;;;;;;6.95;4.72;;;17.50;44.00;;;;;;7388051;19;20020;-71
2023/08/01 03:30:39;;;;;;;7.18;4.70;;;17.50;42.50;;;;;;7387591;19;20029;-71
2023/08/01 03:33:09;;;;;;;6.55;4.65;;;17.40;37.10;;;;;;7387510;19;20032;-71
2023/08/01 03:35:39;;;;;;;8.02;4.53;;;17.50;39.50;;;;;;7386934;19;20010;-71
2023/08/01 03:38:11;;;;;;;9.45;4.43;;;17.50;37.30;;;;;;7387723;19;20014;-71
2023/08/01 03:40:41;;;;;;;9.82;5.05;;;17.50;38.50;;;;;;7386658;19;20035;-69
2023/08/01 03:43:11;;;;;;;7.10;5.22;;;17.40;40.10;;;;;;7387206;19;20023;-70
2023/08/01 03:45:42;;;;;;;6.00;4.43;;;17.50;42.20;;;;;;7387817;19;20028;-70
2023/08/01 03:48:12;;;;;;;6.90;4.43;;;17.50;35.20;;;;;;7387377;19;20038;-71
2023/08/01 03:50:42;;;;;;;8.32;4.50;;;17.50;36.20;;;;;;7386679;19;20090;-70
2023/08/01 03:53:14;;;;;;;9.10;5.00;;;17.60;33.60;;;;;;7393362;19;20010;-71
2023/08/01 03:55:46;;;;;;;8.02;4.68;;;17.60;28.70;;;;;;7392151;19;20026;-70
2023/08/01 03:58:17;;;;;;;6.93;4.13;;;17.60;28.50;;;;;;7394053;19;20014;-71
2023/08/01 04:00:47;;;;;;;7.15;4.15;;;17.60;24.50;;;;;;7393364;19;20015;-71
2023/08/01 04:03:17;;;;;;;9.82;4.00;;;17.60;21.00;;;;;;7394327;19;20002;-71
2023/08/01 04:05:47;;;;;;;6.88;4.00;;;17.70;20.60;;;;;;7392247;19;20106;-70
2023/08/01 04:08:19;;;;;;;4.55;3.45;;;17.70;13.10;;;;;;7394385;19;20084;-71
2023/08/01 04:10:49;;;;;;;6.65;3.47;;;17.80;7.30;;;;;;7392021;19;20011;-71
2023/08/01 04:13:19;;;;;;;5.80;3.50;;;17.90;7.10;;;;;;7394460;19;20023;-71
2023/08/01 04:15:50;;;;;;;6.35;3.20;;;17.90;3.50;;;;;;7393516;19;20016;-71
2023/08/01 04:18:20;;;;;;;6.25;2.92;;;18.00;1.00;;;;;;7393782;19;20833;-71
2023/08/01 04:20:50;;;;;;;5.68;3.17;;;18.10;1.00;;;;;;7392204;19;20384;-71
2023/08/01 04:23:22;;;;;;;7.05;3.30;;;18.20;1.00;;;;;;7393081;19;20022;-71
2023/08/01 04:25:53;;;;;;;5.40;2.70;;;18.10;1.00;;;;;;7393397;19;20027;-71
2023/08/01 04:28:23;;;;;;;5.30;3.10;;;18.20;1.00;;;;;;7394253;19;20014;-71
2023/08/01 04:30:53;;;;;;;8.85;2.97;;;18.30;1.00;;;;;;7392124;19;20029;-70
2023/08/01 04:33:23;;;;;;;4.25;3.15;;;18.20;1.00;;;;;;7392836;19;20018;-71
2023/08/01 04:35:53;;;;;;;5.45;3.05;;;18.20;1.00;;;;;;7393468;19;20037;-71
2023/08/01 04:38:26;;;;;;;4.68;2.90;;;18.30;1.00;;;;;;7392873;19;20604;-71
2023/08/01 04:40:56;;;;;;;6.97;2.92;;;18.30;1.00;;;;;;7390256;19;20027;-71
2023/08/01 04:43:26;;;;;;;6.07;3.28;;;18.20;1.00;;;;;;7394357;19;20018;-72
2023/08/01 04:45:55;;;;;;;5.80;2.80;;;18.30;1.00;;;;;;7392074;19;20035;-71
2023/08/01 04:48:25;;;;;;;4.45;2.78;;;18.30;1.00;;;;;;7392557;19;20035;-70
2023/08/01 04:50:55;;;;;;;5.15;3.35;;;18.30;1.00;;;;;;7390917;19;20014;-71
2023/08/01 04:53:28;;;;;;;5.18;2.80;;;18.20;1.00;;;;;;7392355;19;20490;-71
2023/08/01 04:55:58;;;;;;;5.90;3.55;;;18.10;1.00;;;;;;7392434;19;20081;-72
2023/08/01 04:58:28;;;;;;;6.13;3.30;;;18.00;1.00;;;;;;7390551;19;20135;-71
2023/08/01 05:00:57;;;;;;;4.55;3.00;;;18.00;1.00;;;;;;7390703;19;20035;-71
2023/08/01 05:03:27;;;;;;;5.60;3.00;;;17.90;1.00;;;;;;7390851;19;20029;-71
2023/08/01 05:05:58;;;;;;;5.85;3.03;;;17.90;1.00;;;;;;7389898;19;20494;-71
2023/08/01 05:08:30;;;;;;;4.63;2.70;;;17.90;1.00;;;;;;7391553;19;20476;-72
2023/08/01 05:11:00;;;;;;;4.97;3.08;;;18.00;1.00;;;;;;7390293;19;20025;-71
2023/08/01 05:13:30;;;;;;;6.07;2.70;;;17.90;1.00;;;;;;7391669;19;20018;-71
2023/08/01 05:16:01;;;;;;;4.38;2.92;;;18.00;1.00;;;;;;7391745;19;20104;-71
2023/08/01 05:18:31;;;;;;;7.13;2.97;;;17.90;1.00;;;;;;7391289;19;20522;-71
2023/08/01 05:21:01;;;;;;;3.45;2.63;;;17.90;1.00;;;;;;7390468;19;20026;-70
2023/08/01 05:23:33;;;;;;;5.30;3.60;;;18.00;1.00;;;;;;7390966;19;20015;-71
2023/08/01 05:26:03;;;;;;;4.53;2.60;;;18.00;1.00;;;;;;7389873;19;20027;-71
2023/08/01 05:28:33;;;;;;;6.40;2.60;;;18.00;1.00;;;;;;7391043;19;20335;-71
2023/08/01 05:31:03;;;;;;;6.47;2.63;;;18.00;1.00;;;;;;7389861;19;20049;-71
2023/08/01 05:33:33;;;;;;;6.57;2.75;;;18.10;1.00;;;;;;7391114;19;20378;-72
2023/08/01 05:36:03;;;;;;;4.15;2.60;;;18.10;1.00;;;;;;7390830;19;20020;-70
2023/08/01 05:38:36;;;;;;;4.18;2.58;;;18.10;1.00;;;;;;7390911;19;20086;-72
2023/08/01 05:41:06;;;;;;;4.50;2.58;;;18.20;1.00;;;;;;7389030;19;20018;-72
2023/08/01 05:43:36;;;;;;;5.90;3.05;;;18.20;1.00;;;;;;7390922;19;20014;-71
2023/08/01 05:46:06;;;;;;;4.72;2.28;;;18.30;1.00;;;;;;7391133;19;20082;-71
2023/08/01 05:48:36;;;;;;;10.63;3.05;;;18.40;1.00;;;;;;7389261;19;20379;-71
2023/08/01 05:51:05;;;;;;;5.32;2.75;;;18.40;1.00;;;;;;7389090;19;20031;-72
2023/08/01 05:53:38;;;;;;;5.35;3.28;;;18.40;1.00;;;;;;7389532;19;20037;-71
2023/08/01 05:56:08;;;;;;;5.75;2.63;;;18.50;1.00;;;;;;7388181;19;20379;-71
2023/08/01 05:58:38;;;;;;;5.47;3.15;;;18.40;1.00;;;;;;7389672;19;20010;-70
2023/08/01 06:01:09;;;;;;;4.90;3.05;;;18.40;1.00;;;;;;7388366;19;20091;-70
2023/08/01 06:03:38;;;;;;;3.92;2.65;;;18.40;1.00;;;;;;7388470;19;20007;-70
2023/08/01 06:06:09;;;;;;;5.43;2.90;;;18.50;1.00;;;;;;7388128;19;20478;-70
2023/08/01 06:08:41;;;;;;;9.75;2.95;;;18.50;1.00;;;;;;7387441;19;20014;-71
2023/08/01 06:11:11;;;;;;;4.38;2.55;;;18.50;1.00;;;;;;7386708;19;20014;-71
2023/08/01 06:13:41;;;;;;;3.53;2.45;;;18.40;1.00;;;;;;7387413;19;20018;-71
2023/08/01 06:16:11;;;;;;;5.55;2.70;;;18.50;1.00;;;;;;7389584;19;20074;-71
2023/08/01 06:18:41;;;;;;;7.68;3.35;;;18.40;1.00;;;;;;7388950;19;20088;-71
2023/08/01 06:21:11;;;;;;;4.80;3.17;;;18.50;1.00;;;;;;7387373;19;20028;-71
2023/08/01 06:23:46;;;;;;;5.07;2.72;;;18.40;1.00;;;;;;7388562;19;20544;-72
2023/08/01 06:26:16;;;;;;;5.07;3.05;;;18.50;1.00;;;;;;7388644;19;20027;-71
2023/08/01 06:28:46;;;;;;;4.22;3.03;;;18.60;1.00;;;;;;7389333;19;20282;-71
2023/08/01 06:31:16;;;;;;;4.28;3.17;;;18.60;1.00;;;;;;7386873;19;20761;-69
2023/08/01 06:33:46;;;;;;;6.45;3.65;;;18.40;1.00;;;;;;7388548;19;20074;-72
2023/08/01 06:36:17;;;;;;;6.47;4.60;;;18.10;1.00;;;;;;7388857;19;20018;-70
2023/08/01 06:38:50;;;;;;;5.70;4.20;;;17.80;1.00;;;;;;7389257;19;20031;-71
2023/08/01 06:41:20;;;;;;;8.43;4.07;;;17.70;1.00;;;;;;7387300;19;20010;-71
2023/08/01 06:43:49;;;;;;;5.25;3.78;;;17.50;4.40;;;;;;7388901;19;20478;-70
2023/08/01 06:46:19;;;;;;;6.90;4.40;;;17.20;9.00;;;;;;7391383;19;20023;-70
2023/08/01 06:48:49;;;;;;;4.88;3.75;;;17.30;17.20;;;;;;7388272;19;20014;-71
2023/08/01 06:51:19;;;;;;;9.43;5.00;;;17.10;13.40;;;;;;7387554;19;20014;-70
2023/08/01 06:53:52;;;;;;;8.85;4.50;;;17.10;26.60;;;;;;7387879;19;20015;-70
2023/08/01 06:56:22;;;;;;;9.65;5.32;;;17.00;29.00;;;;;;7399161;19;20029;-68
2023/08/01 06:58:52;;;;;;;9.85;4.78;;;17.00;38.30;;;;;;7402750;19;20011;-70
2023/08/01 07:01:22;;;;;;;8.45;4.63;;;17.00;45.60;;;;;;7402244;19;20031;-69
2023/08/01 07:03:52;;;;;;;7.00;5.00;;;17.00;47.20;;;;;;7391432;19;20019;-68
2023/08/01 07:06:23;;;;;;;8.30;5.47;;;17.00;51.60;;;;;;7388279;19;20006;-69
2023/08/01 07:08:57;;;;;;;9.32;5.22;;;17.00;51.40;;;;;;7388437;19;20015;-70
2023/08/01 07:11:27;;;;;;;;;;;17.00;48.70;;;;;;7387058;19;20034;-70
2023/08/01 07:13:57;;;;;;;9.52;5.43;;;17.10;50.10;;;;;;7387515;19;20002;-71
2023/08/01 07:16:27;;;;;;;8.73;5.95;;;17.10;46.70;;;;;;7388173;19;20023;-70
2023/08/01 07:19:00;;;;;;;8.15;5.00;;;17.20;45.10;;;;;;7387848;19;20082;-70
2023/08/01 07:21:31;;;;;;;9.55;6.10;;;17.10;39.70;;;;;;7386251;19;20362;-69
2023/08/01 07:24:03;;;;;;;9.30;5.22;;;17.10;41.70;;;;;;7386229;19;20023;-69
2023/08/01 07:26:33;;;;;;;9.38;5.75;;;17.10;45.60;;;;;;7392867;19;20018;-69
2023/08/01 07:29:03;;;;;;;10.15;6.38;;;17.20;45.30;;;;;;7395288;19;20010;-69
2023/08/01 07:31:33;;;;;;;7.63;5.30;;;17.20;35.00;;;;;;7392153;19;20010;-71
2023/08/01 07:34:03;;;;;;;11.38;5.97;;;17.20;20.00;;;;;;7394443;19;20038;-69
2023/08/01 07:36:33;;;;;;;8.77;5.45;;;17.10;17.90;;;;;;7393125;19;20034;-68
2023/08/01 07:39:05;;;;;;;9.65;5.68;;;17.00;23.60;;;;;;7396252;19;20031;-70
2023/08/01 07:41:35;;;;;;;11.43;5.82;;;16.90;27.60;;;;;;7393772;19;20011;-70
2023/08/01 07:44:06;;;;;;;7.80;5.20;;;16.90;31.40;;;;;;7395643;19;20006;-69
2023/08/01 07:46:36;;;;;;;7.45;5.18;;;16.80;35.90;;;;;;7398044;19;20014;-70
2023/08/01 07:49:06;;;;;;;10.38;5.55;;;16.80;36.10;;;;;;7395718;19;20003;-71
2023/08/01 07:51:36;;;;;;;9.63;4.70;;;16.80;37.60;;;;;;7391910;19;20031;-71
2023/08/01 07:54:09;;;;;;;9.40;4.85;;;16.90;40.20;;;;;;7392137;19;20094;-71
2023/08/01 07:56:39;;;;;;;11.48;4.55;;;16.90;36.60;;;;;;7393914;19;20805;-70
2023/08/01 07:59:10;;;;;;;6.07;4.00;;;17.00;40.00;;;;;;7393951;19;20077;-70
2023/08/01 08:01:40;;;;;;;6.57;4.15;;;17.10;35.30;;;;;;7390388;19;20037;-71
2023/08/01 08:04:10;;;;;;;9.50;4.60;;;17.10;38.30;;;;;;7392982;19;20018;-70
2023/08/01 08:06:40;;;;;;;5.30;3.63;;;17.10;29.70;;;;;;7391927;19;20340;-69
2023/08/01 08:09:13;;;;;;;5.85;3.83;;;17.20;35.50;;;;;;7393284;19;20018;-71
2023/08/01 08:11:42;;;;;;;5.70;3.55;;;17.30;37.70;;;;;;7391300;19;20050;-70
2023/08/01 08:14:14;;;;;;;4.60;3.22;;;17.40;34.50;;;;;;7392546;19;20047;-70
2023/08/01 08:16:44;;;;;;;6.10;3.03;;;17.40;31.90;;;;;;7393280;19;20504;-70
2023/08/01 08:19:14;;;;;;;4.13;2.72;;;17.30;33.50;;;;;;7394447;19;20014;-70
2023/08/01 08:21:44;;;;;;;5.95;2.80;;;17.30;29.90;;;;;;7389323;19;20039;-70
2023/08/01 08:24:17;;;;;;;4.03;2.47;;;17.40;35.90;;;;;;7392174;19;20018;-70
2023/08/01 08:26:47;;;;;;;3.75;2.08;;;17.40;35.80;;;;;;7391516;19;20078;-71
2023/08/01 08:29:17;;;;;;;4.50;2.10;;;17.30;28.90;;;;;;7393032;19;20046;-71
2023/08/01 08:31:47;;;;;;;3.33;2.33;;;17.30;30.00;;;;;;7389950;19;20014;-71
2023/08/01 08:34:17;;;;;;;5.65;3.20;;;17.40;34.10;;;;;;7392142;19;20095;-71
2023/08/01 08:36:47;;;;;;;4.05;2.33;;;17.50;34.10;;;;;;7393984;19;20051;-69
2023/08/01 08:39:19;;;;;;;5.80;2.38;;;17.60;33.20;;;;;;7395805;19;20038;-71
2023/08/01 08:41:51;;;;;;;3.83;2.63;;;17.60;25.00;;;;;;7396805;19;20015;-70
2023/08/01 08:44:24;;;;;;;2.63;1.90;;;17.70;26.90;;;;;;7394171;19;20474;-70
2023/08/01 08:46:55;;;;;;;3.25;2.00;;;17.70;23.70;;;;;;7396417;19;20018;-71
2023/08/01 08:49:28;;;;;;;2.53;1.80;;;17.80;21.40;;;;;;7393110;19;20020;-71
2023/08/01 08:51:59;;;;;;;4.35;1.75;;;18.00;23.00;;;;;;7394279;19;20495;-72
2023/08/01 08:54:32;;;;;;;2.25;1.80;;;18.10;20.10;;;;;;7396494;19;20010;-69
2023/08/01 08:57:03;;;;;;;2.53;1.60;;;18.30;15.90;;;;;;7395207;19;20018;-71
2023/08/01 08:59:34;;;;;;;2.85;1.80;;;18.40;13.60;;;;;;7392725;19;20014;-71
2023/08/01 09:02:05;;;;;;;2.08;1.30;;;18.60;9.30;;;;;;7394849;19;20022;-72
2023/08/01 09:04:34;;;;;;;1.83;1.35;;;18.60;9.20;;;;;;7394262;19;20037;-72
2023/08/01 09:07:10;;;;;;;3.53;1.77;;;18.60;9.50;;;;;;7393273;19;20693;-71
2023/08/01 09:09:43;;;;;;;4.22;1.98;;;18.50;7.50;;;;;;7394295;19;20047;-72
2023/08/01 09:12:13;;;;;;;1.98;1.58;;;18.30;9.50;;;;;;7396017;19;20023;-70
2023/08/01 09:14:43;;;;;;;2.47;1.70;;;18.20;12.10;;;;;;7395138;19;20023;-70
2023/08/01 09:17:16;;;;;;;2.08;1.33;;;18.00;12.50;;;;;;7397981;19;20014;-71
2023/08/01 09:19:46;;;;;;;2.80;1.60;;;18.00;14.30;;;;;;7399899;19;20086;-71
2023/08/01 09:22:17;;;;;;;1.55;1.38;;;18.00;15.00;;;;;;7397963;19;20107;-71
2023/08/01 09:24:56;;;;;;;2.85;1.50;;;18.10;21.90;;;;;;7395218;19;20082;-70
2023/08/01 09:27:34;;;;;;;3.60;1.67;;;18.10;19.10;;;;;;7393351;19;20049;-70
2023/08/01 09:30:11;;;;;;;2.63;1.48;;;18.10;20.60;;;;;;7393531;19;20014;-71
2023/08/01 09:32:41;;;;;;;1.92;1.23;;;18.30;19.70;;;;;;7395017;19;20085;-71
2023/08/01 09:35:11;;;;;;;1.90;1.38;;;18.40;17.40;;;;;;7390513;19;20038;-69
2023/08/01 09:37:42;;;;;;;2.45;1.20;;;18.40;20.80;;;;;;7391248;19;20022;-70
2023/08/01 09:40:16;;;;;;;1.65;0.98;;;18.40;20.50;;;;;;7390718;19;20035;-70
2023/08/01 09:42:47;;;;;;;2.35;1.25;;;18.30;20.30;;;;;;7395192;19;20018;-71
2023/08/01 09:45:18;;;;;;;3.08;1.20;;;18.50;25.70;;;;;;7391443;19;20475;-71
2023/08/01 09:47:51;;;;;;;2.75;1.08;;;18.70;27.70;;;;;;7387994;19;20101;-71
2023/08/01 09:50:23;;;;;;;1.58;1.20;;;18.70;22.80;;;;;;7390723;19;20022;-71
2023/08/01 09:52:54;;;;;;;3.30;1.33;;;18.70;26.90;;;;;;7390793;19;20014;-71
2023/08/01 09:55:33;;;;;;;1.80;1.20;;;18.60;24.70;;;;;;7389777;19;20035;-71
2023/08/01 09:58:03;;;;;;;2.30;1.23;;;18.60;27.90;;;;;;7389721;19;20007;-71
2023/08/01 10:00:37;;;;;;;4.43;1.17;;;18.60;29.60;;;;;;7391753;19;20021;-71
2023/08/01 10:03:10;;;;;;;2.35;1.30;;;18.60;30.50;;;;;;7387939;19;20616;-71
2023/08/01 10:05:42;;;;;;;2.72;1.75;;;18.70;30.70;;;;;;7389194;19;20017;-70
2023/08/01 10:08:13;;;;;;;3.75;2.83;;;18.70;29.40;;;;;;7391817;19;20022;-71
2023/08/01 10:10:47;;;;;;;3.00;1.58;;;18.80;28.20;;;;;;7391760;19;20011;-71
2023/08/01 10:13:17;;;;;;;3.30;1.13;;;18.70;24.20;;;;;;7392076;19;20027;-71
2023/08/01 10:15:47;;;;;;;2.10;1.20;;;18.90;25.90;;;;;;7393925;19;20035;-71
2023/08/01 10:18:18;;;;;;;1.77;1.10;;;18.70;21.00;;;;;;7390663;19;20018;-70
2023/08/01 10:20:50;;;;;;;1.40;0.80;;;18.70;23.00;;;;;;7390422;19;20055;-71
2023/08/01 10:23:21;;;;;;;1.25;0.90;;;18.60;11.60;;;;;;7389982;19;20084;-70
2023/08/01 10:25:54;;;;;;;2.13;0.70;;;18.70;8.20;;;;;;7389407;19;20018;-71
2023/08/01 10:28:34;;;;;;;1.15;0.57;;;18.60;1.00;;;;;;7389983;19;20023;-72
2023/08/01 10:31:12;;;;;;;1.20;0.50;;;18.70;1.00;;;;;;7391697;19;20019;-70
2023/08/01 10:33:43;;;;;;;0.98;0.50;;;18.70;1.00;;;;;;7388962;19;20014;-71
2023/08/01 10:36:20;;;;;;;0.93;0.65;;;18.60;1.00;;;;;;7389526;19;20119;-72
2023/08/01 10:38:51;;;;;;;1.10;0.60;;;18.70;1.00;;;;;;7388898;19;20018;-73
2023/08/01 10:41:27;;;;;;;0.90;0.55;;;19.00;1.00;;;;;;7395659;19;20014;-71
2023/08/01 10:44:11;;;;;;;2.05;0.50;;;19.20;1.00;;;;;;7420976;19;20511;-69
2023/08/01 10:46:48;;;;;;;1.10;0.60;;;19.20;1.00;;;;;;7421384;19;20014;-71
2023/08/01 10:49:21;;;;;;;0.80;0.60;;;19.40;1.00;;;;;;7400788;19;20019;-71
2023/08/01 10:51:51;;;;;;;1.15;0.95;;;19.80;1.00;;;;;;7393867;19;20041;-69
2023/08/01 10:54:23;;;;;;;1.73;0.55;;;20.30;1.00;;;;;;7389169;19;20332;-71
2023/08/01 10:56:58;;;;;;;1.10;0.60;;;20.40;1.00;;;;;;7389012;19;20007;-71
2023/08/01 10:59:28;;;;;;;2.85;0.68;;;20.70;1.00;;;;;;7390372;19;20022;-71
2023/08/01 11:02:01;;;;;;;4.25;0.80;;;21.00;1.00;;;;;;7395607;19;20014;-71
2023/08/01 11:04:31;;;;;;;0.90;0.57;;;20.80;1.00;;;;;;7396148;19;20014;-72
2023/08/01 11:07:01;;;;;;;3.63;0.63;;;21.20;1.00;;;;;;7398959;19;20015;-71
2023/08/01 11:09:31;;;;;;;1.10;0.60;;;21.20;1.00;;;;;;7392407;19;20474;-71
2023/08/01 11:12:04;;;;;;;2.75;0.82;;;20.50;1.00;;;;;;7395183;19;20039;-72
2023/08/01 11:14:34;;;;;;;1.50;0.90;;;20.20;1.00;;;;;;7394936;19;20010;-72
2023/08/01 11:17:04;;;;;;;1.55;0.80;;;20.30;1.00;;;;;;7395323;19;20014;-72
2023/08/01 11:19:34;;;;;;;3.30;1.10;;;20.30;1.00;;;;;;7394219;19;20379;-73
2023/08/01 11:22:12;;;;;;;1.98;0.80;;;20.10;1.00;;;;;;7394855;19;20097;-74
2023/08/01 11:24:52;;;;;;;1.67;0.90;;;20.20;1.00;;;;;;7394400;19;20018;-69
2023/08/01 11:27:24;;;;;;;1.55;0.85;;;20.30;1.00;;;;;;7392900;19;20381;-68
2023/08/01 11:29:54;;;;;;;2.92;1.27;;;20.70;1.00;;;;;;7391316;19;20034;-68
2023/08/01 11:32:34;;;;;;;1.17;0.80;;;20.80;1.00;;;;;;7394953;19;20014;-69
2023/08/01 11:35:05;;;;;;;1.48;0.90;;;20.80;1.00;;;;;;7397830;19;20024;-68
2023/08/01 11:37:35;;;;;;;1.67;0.90;;;20.70;1.00;;;;;;7397578;19;20585;-69
2023/08/01 11:40:09;;;;;;;1.00;0.90;;;20.90;1.00;;;;;;7396117;19;20014;-69
2023/08/01 11:42:41;;;;;;;2.22;1.00;;;21.10;1.00;;;;;;7397991;19;20003;-69
2023/08/01 11:45:13;;;;;;;1.92;0.90;;;20.80;1.00;;;;;;7397770;19;20018;-69
2023/08/01 11:47:48;;;;;;;4.57;1.20;;;21.20;1.00;;;;;;7393425;19;20458;-68
2023/08/01 11:50:24;;;;;;;1.30;0.88;;;21.50;1.00;;;;;;7391618;19;20086;-69
2023/08/01 11:52:55;;;;;;;1.98;1.02;;;21.20;1.00;;;;;;7393910;19;20019;-68
2023/08/01 11:55:28;;;;;;;4.10;1.10;;;21.50;1.00;;;;;;7393464;19;20011;-69
2023/08/01 11:58:01;;;;;;;2.20;1.00;;;21.80;1.00;;;;;;7393252;19;20509;-68
2023/08/01 12:00:31;;;;;;;3.25;0.88;;;22.00;1.00;;;;;;7391922;19;20493;-68
2023/08/01 12:03:12;;;;;;;2.15;0.80;;;22.30;1.00;;;;;;7392041;19;20047;-68
2023/08/01 12:05:45;;;;;;;5.55;1.27;;;22.50;1.00;;;;;;7392321;19;20010;-69
2023/08/01 12:08:16;;;;;;;3.20;0.80;;;22.20;1.00;;;;;;7393439;19;20011;-69
2023/08/01 12:10:48;;;;;;;3.38;1.63;;;22.00;1.00;;;;;;7394555;19;20010;-70
2023/08/01 12:13:28;;;;;;;2.22;1.00;;;22.20;1.00;;;;;;7391518;19;20021;-70
2023/08/01 12:15:59;;;;;;;2.42;1.13;;;22.60;1.00;;;;;;7393079;19;20037;-69
2023/08/01 12:18:31;;;;;;;1.42;0.90;;;22.20;1.00;;;;;;7390877;19;20362;-69
2023/08/01 12:21:05;;;;;;;2.22;1.10;;;21.80;1.00;;;;;;7393411;19;20053;-68
2023/08/01 12:23:35;;;;;;;2.03;0.82;;;22.00;1.00;;;;;;7392499;19;20018;-68
2023/08/01 12:26:05;;;;;;;1.58;0.90;;;22.20;1.00;;;;;;7393078;19;20014;-68
2023/08/01 12:28:37;;;;;;;2.47;0.90;;;22.40;1.00;;;;;;7392548;19;20022;-68
2023/08/01 12:31:08;;;;;;;2.08;1.10;;;22.60;1.00;;;;;;7392410;19;20015;-69
2023/08/01 12:33:38;;;;;;;1.98;0.90;;;22.70;1.00;;;;;;7391746;19;20022;-69
2023/08/01 12:36:08;;;;;;;2.80;1.15;;;23.00;1.00;;;;;;7393017;19;20031;-68
2023/08/01 12:38:37;;;;;;;2.03;0.90;;;22.80;1.00;;;;;;7392119;19;20035;-68
2023/08/01 12:41:08;;;;;;;3.40;1.30;;;22.70;1.00;;;;;;7390492;19;20042;-68
2023/08/01 12:43:40;;;;;;;4.53;0.90;;;22.90;1.00;;;;;;7394001;19;20050;-68
2023/08/01 12:46:10;;;;;;;3.90;1.50;;;22.60;1.00;;;;;;7395116;19;20015;-69
2023/08/01 12:48:40;;;;;;;3.33;1.15;;;22.00;1.00;;;;;;7396552;19;20014;-68
2023/08/01 12:51:11;;;;;;;1.80;0.95;;;22.20;1.00;;;;;;7391012;19;20040;-69
2023/08/01 12:53:42;;;;;;;1.40;0.80;;;22.60;1.00;;;;;;7390336;19;20470;-69
2023/08/01 12:56:12;;;;;;;2.05;0.93;;;22.80;1.00;;;;;;7392926;19;20030;-69
2023/08/01 12:58:45;;;;;;;2.20;0.98;;;22.70;1.00;;;;;;7395431;19;20471;-68
2023/08/01 13:01:15;;;;;;;2.38;1.40;;;22.70;1.00;;;;;;7389800;19;20030;-68
2023/08/01 13:03:45;;;;;;;2.80;1.20;;;22.90;1.00;;;;;;7391980;19;20481;-68
2023/08/01 13:06:15;;;;;;;1.85;1.08;;;22.90;1.00;;;;;;7395027;19;20070;-68
2023/08/01 13:08:45;;;;;;;2.67;1.05;;;22.50;1.00;;;;;;7392180;19;20013;-69
2023/08/01 13:11:16;;;;;;;2.45;1.10;;;22.00;1.00;;;;;;7390446;19;20027;-68
2023/08/01 13:13:49;;;;;;;1.45;0.85;;;22.70;1.00;;;;;;7394264;19;20074;-67